sensor_id;sensor_type;location;lat;lon;timestamp;P1;durP1;ratioP1;P2;durP2;ratioP2
10082;SDS011;5080;48.528;8.078;2022-11-12T00:00:09;1.30;;;1.30;;
10082;SDS011;5080;48.528;8.078;2022-11-12T00:02:37;1.10;;;1.10;;
10082;SDS011;5080;48.528;8.078;2022-11-12T00:05:05;1.20;;;1.20;;
10082;SDS011;5080;48.528;8.078;2022-11-12T00:07:33;1.20;;;1.20;;
10082;SDS011;5080;48.528;8.078;2022-11-12T00:10:00;1.23;;;1.20;;
10082;SDS011;5080;48.528;8.078;2022-11-12T00:12:26;1.20;;;1.20;;
10082;SDS011;5080;48.528;8.078;2022-11-12T00:14:53;2.23;;;1.47;;
10082;SDS011;5080;48.528;8.078;2022-11-12T00:17:20;1.57;;;1.47;;
10082;SDS011;5080;48.528;8.078;2022-11-12T00:19:47;1.83;;;1.73;;
10082;SDS011;5080;48.528;8.078;2022-11-12T00:22:15;4.30;;;2.20;;
10082;SDS011;5080;48.528;8.078;2022-11-12T00:24:42;9.57;;;2.63;;
10082;SDS011;5080;48.528;8.078;2022-11-12T00:27:09;3.93;;;2.33;;
10082;SDS011;5080;48.528;8.078;2022-11-12T00:29:36;3.83;;;2.07;;
10082;SDS011;5080;48.528;8.078;2022-11-12T00:32:04;2.70;;;2.43;;
10082;SDS011;5080;48.528;8.078;2022-11-12T00:34:30;2.43;;;1.80;;
10082;SDS011;5080;48.528;8.078;2022-11-12T00:36:57;2.43;;;1.80;;
10082;SDS011;5080;48.528;8.078;2022-11-12T00:39:26;1.97;;;1.77;;
10082;SDS011;5080;48.528;8.078;2022-11-12T00:41:53;10.30;;;3.17;;
10082;SDS011;5080;48.528;8.078;2022-11-12T00:44:20;4.97;;;2.20;;
10082;SDS011;5080;48.528;8.078;2022-11-12T00:46:47;2.60;;;2.00;;
10082;SDS011;5080;48.528;8.078;2022-11-12T00:49:14;1.60;;;1.50;;
10082;SDS011;5080;48.528;8.078;2022-11-12T00:51:41;1.47;;;1.33;;
10082;SDS011;5080;48.528;8.078;2022-11-12T00:54:08;1.57;;;1.47;;
10082;SDS011;5080;48.528;8.078;2022-11-12T00:56:36;1.60;;;1.50;;
10082;SDS011;5080;48.528;8.078;2022-11-12T00:59:03;1.80;;;1.70;;
10082;SDS011;5080;48.528;8.078;2022-11-12T01:01:30;1.50;;;1.40;;
10082;SDS011;5080;48.528;8.078;2022-11-12T01:03:57;1.07;;;1.07;;
10082;SDS011;5080;48.528;8.078;2022-11-12T01:06:25;0.80;;;0.80;;
10082;SDS011;5080;48.528;8.078;2022-11-12T01:08:53;0.80;;;0.80;;
10082;SDS011;5080;48.528;8.078;2022-11-12T01:11:21;0.90;;;0.90;;
10082;SDS011;5080;48.528;8.078;2022-11-12T01:13:53;0.80;;;0.80;;
10082;SDS011;5080;48.528;8.078;2022-11-12T01:16:23;0.80;;;0.80;;
10082;SDS011;5080;48.528;8.078;2022-11-12T01:18:51;0.80;;;0.80;;
10082;SDS011;5080;48.528;8.078;2022-11-12T01:21:20;0.70;;;0.70;;
10082;SDS011;5080;48.528;8.078;2022-11-12T01:23:47;0.73;;;0.73;;
10082;SDS011;5080;48.528;8.078;2022-11-12T01:26:14;0.97;;;0.97;;
10082;SDS011;5080;48.528;8.078;2022-11-12T01:28:43;2.20;;;1.00;;
10082;SDS011;5080;48.528;8.078;2022-11-12T01:31:13;1.13;;;1.03;;
10082;SDS011;5080;48.528;8.078;2022-11-12T01:33:43;1.00;;;1.00;;
10082;SDS011;5080;48.528;8.078;2022-11-12T01:36:11;1.30;;;1.20;;
10082;SDS011;5080;48.528;8.078;2022-11-12T01:38:39;3.03;;;1.50;;
10082;SDS011;5080;48.528;8.078;2022-11-12T01:41:08;1.20;;;1.20;;
10082;SDS011;5080;48.528;8.078;2022-11-12T01:43:36;1.03;;;1.03;;
10082;SDS011;5080;48.528;8.078;2022-11-12T01:46:04;4.77;;;1.70;;
10082;SDS011;5080;48.528;8.078;2022-11-12T01:48:40;0.93;;;0.90;;
10082;SDS011;5080;48.528;8.078;2022-11-12T01:51:13;4.67;;;1.50;;
10082;SDS011;5080;48.528;8.078;2022-11-12T01:53:42;3.07;;;1.63;;
10082;SDS011;5080;48.528;8.078;2022-11-12T01:56:12;1.47;;;1.37;;
10082;SDS011;5080;48.528;8.078;2022-11-12T01:58:41;3.23;;;1.57;;
10082;SDS011;5080;48.528;8.078;2022-11-12T02:01:09;2.40;;;1.53;;
10082;SDS011;5080;48.528;8.078;2022-11-12T02:03:36;2.83;;;1.70;;
10082;SDS011;5080;48.528;8.078;2022-11-12T02:06:05;2.10;;;1.50;;
10082;SDS011;5080;48.528;8.078;2022-11-12T02:08:36;1.00;;;1.00;;
10082;SDS011;5080;48.528;8.078;2022-11-12T02:11:15;1.37;;;1.27;;
10082;SDS011;5080;48.528;8.078;2022-11-12T02:13:53;1.30;;;1.30;;
10082;SDS011;5080;48.528;8.078;2022-11-12T02:16:22;1.40;;;1.40;;
10082;SDS011;5080;48.528;8.078;2022-11-12T02:18:50;1.97;;;1.60;;
10082;SDS011;5080;48.528;8.078;2022-11-12T02:21:19;1.50;;;1.40;;
10082;SDS011;5080;48.528;8.078;2022-11-12T02:23:46;1.70;;;1.60;;
10082;SDS011;5080;48.528;8.078;2022-11-12T02:26:22;1.50;;;1.40;;
10082;SDS011;5080;48.528;8.078;2022-11-12T02:28:48;1.57;;;1.47;;
10082;SDS011;5080;48.528;8.078;2022-11-12T02:31:15;1.40;;;1.30;;
10082;SDS011;5080;48.528;8.078;2022-11-12T02:33:42;1.30;;;1.20;;
10082;SDS011;5080;48.528;8.078;2022-11-12T02:36:09;0.70;;;0.70;;
10082;SDS011;5080;48.528;8.078;2022-11-12T02:38:37;0.90;;;0.90;;
10082;SDS011;5080;48.528;8.078;2022-11-12T02:41:04;0.70;;;0.70;;
10082;SDS011;5080;48.528;8.078;2022-11-12T02:43:31;0.80;;;0.80;;
10082;SDS011;5080;48.528;8.078;2022-11-12T02:45:58;0.90;;;0.90;;
10082;SDS011;5080;48.528;8.078;2022-11-12T02:48:25;0.80;;;0.80;;
10082;SDS011;5080;48.528;8.078;2022-11-12T02:50:51;3.57;;;1.10;;
10082;SDS011;5080;48.528;8.078;2022-11-12T02:53:18;0.90;;;0.90;;
10082;SDS011;5080;48.528;8.078;2022-11-12T02:55:46;0.90;;;0.90;;
10082;SDS011;5080;48.528;8.078;2022-11-12T02:58:13;1.03;;;1.00;;
10082;SDS011;5080;48.528;8.078;2022-11-12T03:00:40;0.97;;;0.97;;
10082;SDS011;5080;48.528;8.078;2022-11-12T03:03:07;0.90;;;0.90;;
10082;SDS011;5080;48.528;8.078;2022-11-12T03:05:34;1.00;;;1.00;;
10082;SDS011;5080;48.528;8.078;2022-11-12T03:08:02;0.87;;;0.87;;
10082;SDS011;5080;48.528;8.078;2022-11-12T03:10:31;3.13;;;1.73;;
10082;SDS011;5080;48.528;8.078;2022-11-12T03:13:00;1.10;;;1.10;;
10082;SDS011;5080;48.528;8.078;2022-11-12T03:15:28;1.30;;;1.20;;
10082;SDS011;5080;48.528;8.078;2022-11-12T03:17:55;1.33;;;1.30;;
10082;SDS011;5080;48.528;8.078;2022-11-12T03:20:23;0.93;;;0.93;;
10082;SDS011;5080;48.528;8.078;2022-11-12T03:22:53;2.20;;;1.50;;
10082;SDS011;5080;48.528;8.078;2022-11-12T03:25:21;2.13;;;1.70;;
10082;SDS011;5080;48.528;8.078;2022-11-12T03:27:54;3.47;;;1.60;;
10082;SDS011;5080;48.528;8.078;2022-11-12T03:30:24;1.80;;;1.40;;
10082;SDS011;5080;48.528;8.078;2022-11-12T03:32:52;1.50;;;1.40;;
10082;SDS011;5080;48.528;8.078;2022-11-12T03:35:18;1.53;;;1.43;;
10082;SDS011;5080;48.528;8.078;2022-11-12T03:37:45;1.03;;;0.93;;
10082;SDS011;5080;48.528;8.078;2022-11-12T03:40:14;2.50;;;1.33;;
10082;SDS011;5080;48.528;8.078;2022-11-12T03:42:45;1.20;;;1.10;;
10082;SDS011;5080;48.528;8.078;2022-11-12T03:45:12;3.37;;;1.20;;
10082;SDS011;5080;48.528;8.078;2022-11-12T03:47:42;2.67;;;1.37;;
10082;SDS011;5080;48.528;8.078;2022-11-12T03:50:10;2.47;;;1.13;;
10082;SDS011;5080;48.528;8.078;2022-11-12T03:52:37;0.90;;;0.90;;
10082;SDS011;5080;48.528;8.078;2022-11-12T03:55:04;1.57;;;1.20;;
10082;SDS011;5080;48.528;8.078;2022-11-12T03:57:31;1.40;;;1.30;;
10082;SDS011;5080;48.528;8.078;2022-11-12T03:59:58;1.40;;;1.30;;
10082;SDS011;5080;48.528;8.078;2022-11-12T04:02:25;1.63;;;1.40;;
10082;SDS011;5080;48.528;8.078;2022-11-12T04:04:55;5.60;;;1.63;;
10082;SDS011;5080;48.528;8.078;2022-11-12T04:07:40;1.20;;;1.10;;
10082;SDS011;5080;48.528;8.078;2022-11-12T04:10:24;1.10;;;1.00;;
10082;SDS011;5080;48.528;8.078;2022-11-12T04:12:53;1.80;;;1.70;;
10082;SDS011;5080;48.528;8.078;2022-11-12T04:15:37;1.80;;;1.70;;
10082;SDS011;5080;48.528;8.078;2022-11-12T04:18:04;1.70;;;1.60;;
10082;SDS011;5080;48.528;8.078;2022-11-12T04:20:50;1.70;;;1.60;;
10082;SDS011;5080;48.528;8.078;2022-11-12T04:23:35;1.03;;;1.03;;
10082;SDS011;5080;48.528;8.078;2022-11-12T04:26:01;0.70;;;0.70;;
10082;SDS011;5080;48.528;8.078;2022-11-12T04:28:46;0.70;;;0.70;;
10082;SDS011;5080;48.528;8.078;2022-11-12T04:31:26;0.70;;;0.70;;
10082;SDS011;5080;48.528;8.078;2022-11-12T04:33:53;0.60;;;0.60;;
10082;SDS011;5080;48.528;8.078;2022-11-12T04:36:41;0.80;;;0.80;;
10082;SDS011;5080;48.528;8.078;2022-11-12T04:39:08;0.87;;;0.87;;
10082;SDS011;5080;48.528;8.078;2022-11-12T04:41:35;0.70;;;0.70;;
10082;SDS011;5080;48.528;8.078;2022-11-12T04:44:19;0.70;;;0.70;;
10082;SDS011;5080;48.528;8.078;2022-11-12T04:47:03;0.53;;;0.53;;
10082;SDS011;5080;48.528;8.078;2022-11-12T04:49:30;0.60;;;0.60;;
10082;SDS011;5080;48.528;8.078;2022-11-12T04:51:58;1.60;;;0.50;;
10082;SDS011;5080;48.528;8.078;2022-11-12T04:54:31;0.67;;;0.67;;
10082;SDS011;5080;48.528;8.078;2022-11-12T04:56:58;0.90;;;0.90;;
10082;SDS011;5080;48.528;8.078;2022-11-12T04:59:25;0.97;;;0.97;;
10082;SDS011;5080;48.528;8.078;2022-11-12T05:01:52;0.70;;;0.70;;
10082;SDS011;5080;48.528;8.078;2022-11-12T05:04:19;0.67;;;0.67;;
10082;SDS011;5080;48.528;8.078;2022-11-12T05:06:46;0.60;;;0.60;;
10082;SDS011;5080;48.528;8.078;2022-11-12T05:09:17;0.83;;;0.50;;
10082;SDS011;5080;48.528;8.078;2022-11-12T05:11:45;0.50;;;0.50;;
10082;SDS011;5080;48.528;8.078;2022-11-12T05:14:12;0.90;;;0.90;;
10082;SDS011;5080;48.528;8.078;2022-11-12T05:16:39;1.50;;;1.10;;
10082;SDS011;5080;48.528;8.078;2022-11-12T05:19:06;0.93;;;0.93;;
10082;SDS011;5080;48.528;8.078;2022-11-12T05:21:32;1.73;;;0.90;;
10082;SDS011;5080;48.528;8.078;2022-11-12T05:24:18;3.77;;;2.00;;
10082;SDS011;5080;48.528;8.078;2022-11-12T05:26:45;1.27;;;1.20;;
10082;SDS011;5080;48.528;8.078;2022-11-12T05:29:12;1.73;;;1.30;;
10082;SDS011;5080;48.528;8.078;2022-11-12T05:31:38;2.07;;;1.23;;
10082;SDS011;5080;48.528;8.078;2022-11-12T05:34:05;1.20;;;1.10;;
10082;SDS011;5080;48.528;8.078;2022-11-12T05:36:32;1.33;;;1.10;;
10082;SDS011;5080;48.528;8.078;2022-11-12T05:38:59;1.13;;;1.10;;
10082;SDS011;5080;48.528;8.078;2022-11-12T05:41:27;2.67;;;1.50;;
10082;SDS011;5080;48.528;8.078;2022-11-12T05:43:54;1.77;;;1.63;;
10082;SDS011;5080;48.528;8.078;2022-11-12T05:46:21;1.47;;;0.90;;
10082;SDS011;5080;48.528;8.078;2022-11-12T05:48:47;1.50;;;1.40;;
10082;SDS011;5080;48.528;8.078;2022-11-12T05:51:14;1.23;;;1.23;;
10082;SDS011;5080;48.528;8.078;2022-11-12T05:53:41;2.40;;;1.40;;
10082;SDS011;5080;48.528;8.078;2022-11-12T05:56:08;3.70;;;1.63;;
10082;SDS011;5080;48.528;8.078;2022-11-12T05:58:38;6.43;;;1.97;;
10082;SDS011;5080;48.528;8.078;2022-11-12T06:01:04;3.43;;;1.37;;
10082;SDS011;5080;48.528;8.078;2022-11-12T06:03:32;4.80;;;1.47;;
10082;SDS011;5080;48.528;8.078;2022-11-12T06:05:59;7.93;;;2.73;;
10082;SDS011;5080;48.528;8.078;2022-11-12T06:08:25;0.90;;;0.90;;
10082;SDS011;5080;48.528;8.078;2022-11-12T06:10:53;1.43;;;1.43;;
10082;SDS011;5080;48.528;8.078;2022-11-12T06:13:21;1.27;;;1.23;;
10082;SDS011;5080;48.528;8.078;2022-11-12T06:15:50;3.47;;;1.53;;
10082;SDS011;5080;48.528;8.078;2022-11-12T06:18:17;3.43;;;1.77;;
10082;SDS011;5080;48.528;8.078;2022-11-12T06:20:44;1.60;;;1.10;;
10082;SDS011;5080;48.528;8.078;2022-11-12T06:23:32;1.30;;;1.20;;
10082;SDS011;5080;48.528;8.078;2022-11-12T06:25:59;1.43;;;1.33;;
10082;SDS011;5080;48.528;8.078;2022-11-12T06:28:25;1.97;;;1.30;;
10082;SDS011;5080;48.528;8.078;2022-11-12T06:30:54;0.93;;;0.93;;
10082;SDS011;5080;48.528;8.078;2022-11-12T06:33:21;1.20;;;1.20;;
10082;SDS011;5080;48.528;8.078;2022-11-12T06:35:54;1.37;;;1.30;;
10082;SDS011;5080;48.528;8.078;2022-11-12T06:38:22;1.40;;;1.30;;
10082;SDS011;5080;48.528;8.078;2022-11-12T06:40:49;4.10;;;1.70;;
10082;SDS011;5080;48.528;8.078;2022-11-12T06:43:16;2.30;;;1.40;;
10082;SDS011;5080;48.528;8.078;2022-11-12T06:45:42;1.67;;;1.57;;
10082;SDS011;5080;48.528;8.078;2022-11-12T06:48:11;1.40;;;1.30;;
10082;SDS011;5080;48.528;8.078;2022-11-12T06:50:37;1.33;;;1.23;;
10082;SDS011;5080;48.528;8.078;2022-11-12T06:53:04;1.80;;;1.47;;
10082;SDS011;5080;48.528;8.078;2022-11-12T06:55:31;1.93;;;1.47;;
10082;SDS011;5080;48.528;8.078;2022-11-12T06:57:58;1.30;;;1.30;;
10082;SDS011;5080;48.528;8.078;2022-11-12T07:00:25;1.33;;;1.30;;
10082;SDS011;5080;48.528;8.078;2022-11-12T07:02:52;1.50;;;1.40;;
10082;SDS011;5080;48.528;8.078;2022-11-12T07:05:20;1.53;;;1.43;;
10082;SDS011;5080;48.528;8.078;2022-11-12T07:07:47;6.80;;;2.00;;
10082;SDS011;5080;48.528;8.078;2022-11-12T07:10:14;2.17;;;1.57;;
10082;SDS011;5080;48.528;8.078;2022-11-12T07:12:41;1.57;;;1.47;;
10082;SDS011;5080;48.528;8.078;2022-11-12T07:15:08;2.00;;;1.90;;
10082;SDS011;5080;48.528;8.078;2022-11-12T07:17:35;2.57;;;2.10;;
10082;SDS011;5080;48.528;8.078;2022-11-12T07:20:02;2.10;;;2.00;;
10082;SDS011;5080;48.528;8.078;2022-11-12T07:22:32;1.80;;;1.70;;
10082;SDS011;5080;48.528;8.078;2022-11-12T07:24:59;2.17;;;1.97;;
10082;SDS011;5080;48.528;8.078;2022-11-12T07:27:27;2.17;;;2.03;;
10082;SDS011;5080;48.528;8.078;2022-11-12T07:29:55;2.10;;;2.00;;
10082;SDS011;5080;48.528;8.078;2022-11-12T07:32:22;3.70;;;3.40;;
10082;SDS011;5080;48.528;8.078;2022-11-12T07:34:49;4.37;;;4.03;;
10082;SDS011;5080;48.528;8.078;2022-11-12T07:37:16;3.87;;;3.53;;
10082;SDS011;5080;48.528;8.078;2022-11-12T07:39:44;2.97;;;2.77;;
10082;SDS011;5080;48.528;8.078;2022-11-12T07:42:11;2.70;;;2.27;;
10082;SDS011;5080;48.528;8.078;2022-11-12T07:44:38;2.67;;;1.70;;
10082;SDS011;5080;48.528;8.078;2022-11-12T07:47:05;2.27;;;1.53;;
10082;SDS011;5080;48.528;8.078;2022-11-12T07:49:31;1.80;;;1.50;;
10082;SDS011;5080;48.528;8.078;2022-11-12T07:51:58;1.23;;;1.23;;
10082;SDS011;5080;48.528;8.078;2022-11-12T07:54:26;1.33;;;1.30;;
10082;SDS011;5080;48.528;8.078;2022-11-12T07:56:54;1.50;;;1.40;;
10082;SDS011;5080;48.528;8.078;2022-11-12T07:59:21;1.60;;;1.53;;
10082;SDS011;5080;48.528;8.078;2022-11-12T08:01:49;2.40;;;2.20;;
10082;SDS011;5080;48.528;8.078;2022-11-12T08:04:16;2.20;;;2.10;;
10082;SDS011;5080;48.528;8.078;2022-11-12T08:06:43;3.60;;;2.30;;
10082;SDS011;5080;48.528;8.078;2022-11-12T08:09:10;1.70;;;1.60;;
10082;SDS011;5080;48.528;8.078;2022-11-12T08:11:37;2.30;;;2.20;;
10082;SDS011;5080;48.528;8.078;2022-11-12T08:14:05;2.03;;;1.93;;
10082;SDS011;5080;48.528;8.078;2022-11-12T08:16:32;2.03;;;1.93;;
10082;SDS011;5080;48.528;8.078;2022-11-12T08:18:59;2.43;;;2.23;;
10082;SDS011;5080;48.528;8.078;2022-11-12T08:21:26;1.87;;;1.77;;
10082;SDS011;5080;48.528;8.078;2022-11-12T08:23:53;2.00;;;1.90;;
10082;SDS011;5080;48.528;8.078;2022-11-12T08:26:19;1.80;;;1.70;;
10082;SDS011;5080;48.528;8.078;2022-11-12T08:28:46;2.33;;;2.23;;
10082;SDS011;5080;48.528;8.078;2022-11-12T08:31:15;1.77;;;1.67;;
10082;SDS011;5080;48.528;8.078;2022-11-12T08:33:43;4.87;;;2.37;;
10082;SDS011;5080;48.528;8.078;2022-11-12T08:36:11;2.00;;;1.90;;
10082;SDS011;5080;48.528;8.078;2022-11-12T08:38:39;1.80;;;1.70;;
10082;SDS011;5080;48.528;8.078;2022-11-12T08:41:08;1.67;;;1.57;;
10082;SDS011;5080;48.528;8.078;2022-11-12T08:43:37;3.43;;;1.93;;
10082;SDS011;5080;48.528;8.078;2022-11-12T08:46:04;1.97;;;1.83;;
10082;SDS011;5080;48.528;8.078;2022-11-12T08:48:33;2.23;;;2.10;;
10082;SDS011;5080;48.528;8.078;2022-11-12T08:51:04;2.40;;;2.20;;
10082;SDS011;5080;48.528;8.078;2022-11-12T08:53:32;1.93;;;1.83;;
10082;SDS011;5080;48.528;8.078;2022-11-12T08:55:59;2.03;;;1.90;;
10082;SDS011;5080;48.528;8.078;2022-11-12T08:58:26;2.43;;;2.23;;
10082;SDS011;5080;48.528;8.078;2022-11-12T09:00:53;2.13;;;2.03;;
10082;SDS011;5080;48.528;8.078;2022-11-12T09:03:21;1.80;;;1.70;;
10082;SDS011;5080;48.528;8.078;2022-11-12T09:05:50;1.73;;;1.63;;
10082;SDS011;5080;48.528;8.078;2022-11-12T09:08:18;1.30;;;1.30;;
10082;SDS011;5080;48.528;8.078;2022-11-12T09:10:47;1.37;;;1.37;;
10082;SDS011;5080;48.528;8.078;2022-11-12T09:13:14;1.50;;;1.50;;
10082;SDS011;5080;48.528;8.078;2022-11-12T09:15:43;1.90;;;1.80;;
10082;SDS011;5080;48.528;8.078;2022-11-12T09:18:11;1.90;;;1.80;;
10082;SDS011;5080;48.528;8.078;2022-11-12T09:20:39;2.20;;;2.10;;
10082;SDS011;5080;48.528;8.078;2022-11-12T09:23:09;2.23;;;2.10;;
10082;SDS011;5080;48.528;8.078;2022-11-12T09:25:37;2.17;;;2.07;;
10082;SDS011;5080;48.528;8.078;2022-11-12T09:28:05;2.30;;;2.20;;
10082;SDS011;5080;48.528;8.078;2022-11-12T09:30:36;2.87;;;2.67;;
10082;SDS011;5080;48.528;8.078;2022-11-12T09:33:03;2.13;;;2.03;;
10082;SDS011;5080;48.528;8.078;2022-11-12T09:35:30;1.93;;;1.83;;
10082;SDS011;5080;48.528;8.078;2022-11-12T09:37:57;1.90;;;1.80;;
10082;SDS011;5080;48.528;8.078;2022-11-12T09:40:30;3.40;;;2.37;;
10082;SDS011;5080;48.528;8.078;2022-11-12T09:43:09;2.70;;;2.40;;
10082;SDS011;5080;48.528;8.078;2022-11-12T09:45:42;2.63;;;2.43;;
10082;SDS011;5080;48.528;8.078;2022-11-12T09:48:10;2.40;;;2.30;;
10082;SDS011;5080;48.528;8.078;2022-11-12T09:50:41;4.17;;;2.80;;
10082;SDS011;5080;48.528;8.078;2022-11-12T09:53:17;3.50;;;3.30;;
10082;SDS011;5080;48.528;8.078;2022-11-12T09:55:48;2.53;;;2.43;;
10082;SDS011;5080;48.528;8.078;2022-11-12T09:58:17;2.40;;;2.30;;
10082;SDS011;5080;48.528;8.078;2022-11-12T10:00:48;2.00;;;1.90;;
10082;SDS011;5080;48.528;8.078;2022-11-12T10:03:21;2.83;;;2.63;;
10082;SDS011;5080;48.528;8.078;2022-11-12T10:05:57;2.10;;;2.00;;
10082;SDS011;5080;48.528;8.078;2022-11-12T10:08:29;1.87;;;1.77;;
10082;SDS011;5080;48.528;8.078;2022-11-12T10:11:06;1.87;;;1.77;;
10082;SDS011;5080;48.528;8.078;2022-11-12T10:13:49;3.90;;;3.50;;
10082;SDS011;5080;48.528;8.078;2022-11-12T10:16:27;2.53;;;2.43;;
10082;SDS011;5080;48.528;8.078;2022-11-12T10:22:00;2.80;;;2.60;;
10082;SDS011;5080;48.528;8.078;2022-11-12T10:24:33;3.37;;;3.07;;
10082;SDS011;5080;48.528;8.078;2022-11-12T10:27:07;2.50;;;2.40;;
10082;SDS011;5080;48.528;8.078;2022-11-12T10:29:41;3.60;;;2.73;;
10082;SDS011;5080;48.528;8.078;2022-11-12T10:32:15;2.43;;;2.33;;
10082;SDS011;5080;48.528;8.078;2022-11-12T10:34:42;2.50;;;2.40;;
10082;SDS011;5080;48.528;8.078;2022-11-12T10:37:10;2.27;;;2.17;;
10082;SDS011;5080;48.528;8.078;2022-11-12T10:39:43;3.50;;;2.67;;
10082;SDS011;5080;48.528;8.078;2022-11-12T10:42:13;2.20;;;2.10;;
10082;SDS011;5080;48.528;8.078;2022-11-12T10:44:42;2.30;;;2.10;;
10082;SDS011;5080;48.528;8.078;2022-11-12T10:47:24;2.80;;;2.60;;
10082;SDS011;5080;48.528;8.078;2022-11-12T10:50:10;2.63;;;2.53;;
10082;SDS011;5080;48.528;8.078;2022-11-12T10:52:51;2.10;;;2.00;;
10082;SDS011;5080;48.528;8.078;2022-11-12T10:55:23;2.07;;;1.97;;
10082;SDS011;5080;48.528;8.078;2022-11-12T11:00:56;2.30;;;2.20;;
10082;SDS011;5080;48.528;8.078;2022-11-12T11:03:26;2.07;;;1.97;;
10082;SDS011;5080;48.528;8.078;2022-11-12T11:05:57;2.10;;;2.00;;
10082;SDS011;5080;48.528;8.078;2022-11-12T11:08:36;2.00;;;1.90;;
10082;SDS011;5080;48.528;8.078;2022-11-12T11:11:10;2.40;;;2.30;;
10082;SDS011;5080;48.528;8.078;2022-11-12T11:13:46;4.57;;;3.00;;
10082;SDS011;5080;48.528;8.078;2022-11-12T11:16:14;2.50;;;2.40;;
10082;SDS011;5080;48.528;8.078;2022-11-12T11:18:44;2.63;;;2.50;;
10082;SDS011;5080;48.528;8.078;2022-11-12T11:21:19;2.80;;;2.60;;
10082;SDS011;5080;48.528;8.078;2022-11-12T11:24:00;2.80;;;2.60;;
10082;SDS011;5080;48.528;8.078;2022-11-12T11:26:35;7.63;;;3.03;;
10082;SDS011;5080;48.528;8.078;2022-11-12T11:29:17;2.20;;;2.10;;
10082;SDS011;5080;48.528;8.078;2022-11-12T11:31:57;2.30;;;2.10;;
10082;SDS011;5080;48.528;8.078;2022-11-12T11:34:30;2.40;;;2.30;;
10082;SDS011;5080;48.528;8.078;2022-11-12T11:37:07;2.47;;;2.37;;
10082;SDS011;5080;48.528;8.078;2022-11-12T11:39:48;2.20;;;2.10;;
10082;SDS011;5080;48.528;8.078;2022-11-12T11:42:29;3.10;;;2.90;;
10082;SDS011;5080;48.528;8.078;2022-11-12T11:45:15;4.40;;;2.77;;
10082;SDS011;5080;48.528;8.078;2022-11-12T11:47:49;2.00;;;1.90;;
10082;SDS011;5080;48.528;8.078;2022-11-12T11:50:21;3.40;;;3.20;;
10082;SDS011;5080;48.528;8.078;2022-11-12T11:52:56;3.10;;;2.90;;
10082;SDS011;5080;48.528;8.078;2022-11-12T11:55:34;4.83;;;4.53;;
10082;SDS011;5080;48.528;8.078;2022-11-12T11:58:16;4.63;;;4.33;;
10082;SDS011;5080;48.528;8.078;2022-11-12T12:00:59;4.90;;;4.60;;
10082;SDS011;5080;48.528;8.078;2022-11-12T12:03:37;3.63;;;3.43;;
10082;SDS011;5080;48.528;8.078;2022-11-12T12:06:20;2.63;;;2.43;;
10082;SDS011;5080;48.528;8.078;2022-11-12T12:09:01;2.10;;;2.00;;
10082;SDS011;5080;48.528;8.078;2022-11-12T12:11:40;2.00;;;1.90;;
10082;SDS011;5080;48.528;8.078;2022-11-12T12:14:18;1.97;;;1.87;;
10082;SDS011;5080;48.528;8.078;2022-11-12T12:17:02;2.20;;;2.10;;
10082;SDS011;5080;48.528;8.078;2022-11-12T12:19:42;1.80;;;1.70;;
10082;SDS011;5080;48.528;8.078;2022-11-12T12:22:17;1.80;;;1.70;;
10082;SDS011;5080;48.528;8.078;2022-11-12T12:24:50;2.10;;;1.90;;
10082;SDS011;5080;48.528;8.078;2022-11-12T12:27:21;2.70;;;2.30;;
10082;SDS011;5080;48.528;8.078;2022-11-12T12:29:52;2.90;;;2.70;;
10082;SDS011;5080;48.528;8.078;2022-11-12T12:32:27;2.87;;;2.77;;
10082;SDS011;5080;48.528;8.078;2022-11-12T12:35:02;2.43;;;2.33;;
10082;SDS011;5080;48.528;8.078;2022-11-12T12:37:39;2.70;;;2.50;;
10082;SDS011;5080;48.528;8.078;2022-11-12T12:40:13;4.17;;;3.87;;
10082;SDS011;5080;48.528;8.078;2022-11-12T12:42:45;3.90;;;3.70;;
10082;SDS011;5080;48.528;8.078;2022-11-12T12:45:33;3.63;;;3.43;;
10082;SDS011;5080;48.528;8.078;2022-11-12T12:48:06;4.57;;;3.80;;
10082;SDS011;5080;48.528;8.078;2022-11-12T12:50:38;3.37;;;3.10;;
10082;SDS011;5080;48.528;8.078;2022-11-12T12:53:14;4.20;;;3.80;;
10082;SDS011;5080;48.528;8.078;2022-11-12T12:55:43;3.00;;;2.83;;
10082;SDS011;5080;48.528;8.078;2022-11-12T12:58:16;2.73;;;2.63;;
10082;SDS011;5080;48.528;8.078;2022-11-12T13:00:46;2.57;;;2.47;;
10082;SDS011;5080;48.528;8.078;2022-11-12T13:06:27;3.10;;;3.00;;
10082;SDS011;5080;48.528;8.078;2022-11-12T13:09:01;4.40;;;4.00;;
10082;SDS011;5080;48.528;8.078;2022-11-12T13:14:44;3.23;;;3.03;;
10082;SDS011;5080;48.528;8.078;2022-11-12T13:17:44;3.90;;;3.47;;
10082;SDS011;5080;48.528;8.078;2022-11-12T13:20:30;3.67;;;3.37;;
10082;SDS011;5080;48.528;8.078;2022-11-12T13:26:36;3.60;;;3.40;;
10082;SDS011;5080;48.528;8.078;2022-11-12T13:32:31;3.53;;;3.33;;
10082;SDS011;5080;48.528;8.078;2022-11-12T13:37:51;2.70;;;2.60;;
10082;SDS011;5080;48.528;8.078;2022-11-12T13:40:24;4.00;;;3.70;;
10082;SDS011;5080;48.528;8.078;2022-11-12T13:43:12;3.60;;;3.40;;
10082;SDS011;5080;48.528;8.078;2022-11-12T13:45:45;3.50;;;3.30;;
10082;SDS011;5080;48.528;8.078;2022-11-12T13:48:14;3.40;;;3.20;;
10082;SDS011;5080;48.528;8.078;2022-11-12T13:50:48;5.27;;;4.37;;
10082;SDS011;5080;48.528;8.078;2022-11-12T13:53:21;4.37;;;4.07;;
10082;SDS011;5080;48.528;8.078;2022-11-12T13:55:50;3.80;;;3.60;;
10082;SDS011;5080;48.528;8.078;2022-11-12T13:58:19;3.23;;;3.07;;
10082;SDS011;5080;48.528;8.078;2022-11-12T14:00:52;3.43;;;3.23;;
10082;SDS011;5080;48.528;8.078;2022-11-12T14:03:20;3.00;;;2.90;;
10082;SDS011;5080;48.528;8.078;2022-11-12T14:05:49;3.40;;;3.20;;
10082;SDS011;5080;48.528;8.078;2022-11-12T14:11:12;2.97;;;2.87;;
10082;SDS011;5080;48.528;8.078;2022-11-12T14:13:59;3.13;;;2.93;;
10082;SDS011;5080;48.528;8.078;2022-11-12T14:16:34;3.80;;;3.60;;
10082;SDS011;5080;48.528;8.078;2022-11-12T14:19:17;3.60;;;3.40;;
10082;SDS011;5080;48.528;8.078;2022-11-12T14:22:06;3.70;;;3.50;;
10082;SDS011;5080;48.528;8.078;2022-11-12T14:24:39;4.13;;;3.93;;
10082;SDS011;5080;48.528;8.078;2022-11-12T14:27:20;3.90;;;3.70;;
10082;SDS011;5080;48.528;8.078;2022-11-12T14:29:48;3.80;;;3.60;;
10082;SDS011;5080;48.528;8.078;2022-11-12T14:32:33;4.03;;;3.83;;
10082;SDS011;5080;48.528;8.078;2022-11-12T14:35:15;3.90;;;3.70;;
10082;SDS011;5080;48.528;8.078;2022-11-12T14:37:44;4.13;;;3.93;;
10082;SDS011;5080;48.528;8.078;2022-11-12T14:40:17;4.10;;;3.90;;
10082;SDS011;5080;48.528;8.078;2022-11-12T14:42:44;3.83;;;3.40;;
10082;SDS011;5080;48.528;8.078;2022-11-12T14:45:13;3.53;;;3.33;;
10082;SDS011;5080;48.528;8.078;2022-11-12T14:47:41;3.43;;;3.23;;
10082;SDS011;5080;48.528;8.078;2022-11-12T14:50:10;3.73;;;3.53;;
10082;SDS011;5080;48.528;8.078;2022-11-12T14:52:41;4.20;;;4.00;;
10082;SDS011;5080;48.528;8.078;2022-11-12T14:55:12;4.00;;;3.80;;
10082;SDS011;5080;48.528;8.078;2022-11-12T14:57:43;4.17;;;3.97;;
10082;SDS011;5080;48.528;8.078;2022-11-12T15:00:17;4.47;;;4.17;;
10082;SDS011;5080;48.528;8.078;2022-11-12T15:02:45;4.20;;;4.00;;
10082;SDS011;5080;48.528;8.078;2022-11-12T15:05:14;3.50;;;3.30;;
10082;SDS011;5080;48.528;8.078;2022-11-12T15:07:52;4.00;;;3.80;;
10082;SDS011;5080;48.528;8.078;2022-11-12T15:10:28;4.63;;;4.33;;
10082;SDS011;5080;48.528;8.078;2022-11-12T15:13:01;4.53;;;4.23;;
10082;SDS011;5080;48.528;8.078;2022-11-12T15:15:30;4.60;;;4.30;;
10082;SDS011;5080;48.528;8.078;2022-11-12T15:17:59;3.97;;;3.77;;
10082;SDS011;5080;48.528;8.078;2022-11-12T15:20:27;4.00;;;3.80;;
10082;SDS011;5080;48.528;8.078;2022-11-12T15:22:55;3.90;;;3.70;;
10082;SDS011;5080;48.528;8.078;2022-11-12T15:25:22;3.90;;;3.70;;
10082;SDS011;5080;48.528;8.078;2022-11-12T15:27:50;3.73;;;3.53;;
10082;SDS011;5080;48.528;8.078;2022-11-12T15:30:20;4.27;;;3.97;;
10082;SDS011;5080;48.528;8.078;2022-11-12T15:32:49;3.33;;;3.13;;
10082;SDS011;5080;48.528;8.078;2022-11-12T15:35:37;3.93;;;3.73;;
10082;SDS011;5080;48.528;8.078;2022-11-12T15:38:10;4.83;;;4.53;;
10082;SDS011;5080;48.528;8.078;2022-11-12T15:40:40;3.60;;;3.40;;
10082;SDS011;5080;48.528;8.078;2022-11-12T15:43:11;4.00;;;3.80;;
10082;SDS011;5080;48.528;8.078;2022-11-12T15:45:47;4.33;;;4.07;;